sensor_id;sensor_type;location;lat;lon;timestamp;P1;durP1;ratioP1;P2;durP2;ratioP2
53145;SDS011;39042;53.150;5.898;2023-06-04T00:00:52;8.83;;;4.93;;
53145;SDS011;39042;53.150;5.898;2023-06-04T00:03:18;9.37;;;4.40;;
53145;SDS011;39042;53.150;5.898;2023-06-04T00:05:44;10.17;;;4.83;;
53145;SDS011;39042;53.150;5.898;2023-06-04T00:08:10;9.00;;;4.93;;
53145;SDS011;39042;53.150;5.898;2023-06-04T00:10:35;13.30;;;5.30;;
53145;SDS011;39042;53.150;5.898;2023-06-04T00:13:04;10.57;;;5.45;;
53145;SDS011;39042;53.150;5.898;2023-06-04T00:15:30;14.77;;;5.60;;
53145;SDS011;39042;53.150;5.898;2023-06-04T00:17:56;10.93;;;5.03;;
53145;SDS011;39042;53.150;5.898;2023-06-04T00:20:22;19.17;;;6.67;;
53145;SDS011;39042;53.150;5.898;2023-06-04T00:22:48;14.70;;;6.07;;
53145;SDS011;39042;53.150;5.898;2023-06-04T00:25:14;15.13;;;6.13;;
53145;SDS011;39042;53.150;5.898;2023-06-04T00:27:39;12.13;;;6.20;;
53145;SDS011;39042;53.150;5.898;2023-06-04T00:30:06;12.40;;;5.60;;
53145;SDS011;39042;53.150;5.898;2023-06-04T00:32:32;21.65;;;6.47;;
53145;SDS011;39042;53.150;5.898;2023-06-04T00:34:58;15.30;;;6.10;;
53145;SDS011;39042;53.150;5.898;2023-06-04T00:37:24;16.43;;;6.33;;
53145;SDS011;39042;53.150;5.898;2023-06-04T00:42:17;13.35;;;5.72;;
53145;SDS011;39042;53.150;5.898;2023-06-04T00:44:43;15.65;;;6.72;;
53145;SDS011;39042;53.150;5.898;2023-06-04T00:47:14;11.88;;;6.50;;
53145;SDS011;39042;53.150;5.898;2023-06-04T00:49:41;14.40;;;6.85;;
53145;SDS011;39042;53.150;5.898;2023-06-04T00:52:07;15.25;;;6.05;;
53145;SDS011;39042;53.150;5.898;2023-06-04T00:54:34;14.77;;;6.07;;
53145;SDS011;39042;53.150;5.898;2023-06-04T00:57:04;14.07;;;5.50;;
53145;SDS011;39042;53.150;5.898;2023-06-04T00:59:31;13.70;;;5.72;;
53145;SDS011;39042;53.150;5.898;2023-06-04T01:02:00;12.10;;;5.18;;
53145;SDS011;39042;53.150;5.898;2023-06-04T01:07:02;12.00;;;5.53;;
53145;SDS011;39042;53.150;5.898;2023-06-04T01:09:31;15.02;;;5.60;;
53145;SDS011;39042;53.150;5.898;2023-06-04T01:14:24;13.00;;;5.32;;
53145;SDS011;39042;53.150;5.898;2023-06-04T01:22:35;19.58;;;6.85;;
53145;SDS011;39042;53.150;5.898;2023-06-04T01:25:20;13.63;;;6.50;;
53145;SDS011;39042;53.150;5.898;2023-06-04T01:27:49;18.70;;;5.90;;
53145;SDS011;39042;53.150;5.898;2023-06-04T01:30:23;14.05;;;5.50;;
53145;SDS011;39042;53.150;5.898;2023-06-04T01:32:55;13.93;;;6.20;;
53145;SDS011;39042;53.150;5.898;2023-06-04T01:35:21;15.25;;;6.60;;
53145;SDS011;39042;53.150;5.898;2023-06-04T01:37:48;17.88;;;6.03;;
53145;SDS011;39042;53.150;5.898;2023-06-04T01:40:14;15.60;;;6.22;;
53145;SDS011;39042;53.150;5.898;2023-06-04T01:42:41;12.25;;;6.07;;
53145;SDS011;39042;53.150;5.898;2023-06-04T01:45:08;15.48;;;6.03;;
53145;SDS011;39042;53.150;5.898;2023-06-04T01:47:34;16.27;;;6.28;;
53145;SDS011;39042;53.150;5.898;2023-06-04T01:50:02;14.23;;;6.22;;
53145;SDS011;39042;53.150;5.898;2023-06-04T01:52:30;16.20;;;5.97;;
53145;SDS011;39042;53.150;5.898;2023-06-04T01:54:57;18.38;;;7.35;;
53145;SDS011;39042;53.150;5.898;2023-06-04T01:57:23;14.63;;;5.95;;
53145;SDS011;39042;53.150;5.898;2023-06-04T01:59:50;13.27;;;5.88;;
53145;SDS011;39042;53.150;5.898;2023-06-04T02:02:16;14.50;;;6.23;;
53145;SDS011;39042;53.150;5.898;2023-06-04T02:04:42;16.65;;;6.50;;
53145;SDS011;39042;53.150;5.898;2023-06-04T02:07:10;16.88;;;6.57;;
53145;SDS011;39042;53.150;5.898;2023-06-04T02:09:43;13.57;;;5.70;;
53145;SDS011;39042;53.150;5.898;2023-06-04T02:12:08;19.48;;;6.57;;
53145;SDS011;39042;53.150;5.898;2023-06-04T02:14:38;14.50;;;6.18;;
53145;SDS011;39042;53.150;5.898;2023-06-04T02:17:04;10.77;;;5.37;;
53145;SDS011;39042;53.150;5.898;2023-06-04T02:19:41;14.07;;;6.13;;
53145;SDS011;39042;53.150;5.898;2023-06-04T02:22:15;13.55;;;6.40;;
53145;SDS011;39042;53.150;5.898;2023-06-04T02:24:45;16.08;;;7.88;;
53145;SDS011;39042;53.150;5.898;2023-06-04T02:27:13;14.63;;;6.20;;
53145;SDS011;39042;53.150;5.898;2023-06-04T02:29:40;14.63;;;6.05;;
53145;SDS011;39042;53.150;5.898;2023-06-04T02:32:06;11.10;;;5.60;;
53145;SDS011;39042;53.150;5.898;2023-06-04T02:34:32;10.05;;;4.78;;
53145;SDS011;39042;53.150;5.898;2023-06-04T02:37:01;15.95;;;6.07;;
53145;SDS011;39042;53.150;5.898;2023-06-04T02:41:54;15.65;;;5.18;;
53145;SDS011;39042;53.150;5.898;2023-06-04T02:44:20;19.73;;;5.55;;
53145;SDS011;39042;53.150;5.898;2023-06-04T02:46:46;10.65;;;4.72;;
53145;SDS011;39042;53.150;5.898;2023-06-04T02:49:12;9.73;;;5.57;;
53145;SDS011;39042;53.150;5.898;2023-06-04T02:51:45;15.90;;;6.13;;
53145;SDS011;39042;53.150;5.898;2023-06-04T02:54:11;14.30;;;6.57;;
53145;SDS011;39042;53.150;5.898;2023-06-04T02:56:37;14.02;;;6.45;;
53145;SDS011;39042;53.150;5.898;2023-06-04T02:59:03;28.45;;;7.00;;
53145;SDS011;39042;53.150;5.898;2023-06-04T03:01:30;15.85;;;6.45;;
53145;SDS011;39042;53.150;5.898;2023-06-04T03:03:56;18.40;;;6.87;;
53145;SDS011;39042;53.150;5.898;2023-06-04T03:06:30;14.73;;;6.70;;
53145;SDS011;39042;53.150;5.898;2023-06-04T03:08:58;20.23;;;7.50;;
53145;SDS011;39042;53.150;5.898;2023-06-04T03:11:23;17.80;;;8.47;;
53145;SDS011;39042;53.150;5.898;2023-06-04T03:13:50;23.63;;;10.32;;
53145;SDS011;39042;53.150;5.898;2023-06-04T03:16:18;27.65;;;10.70;;
53145;SDS011;39042;53.150;5.898;2023-06-04T03:18:43;27.33;;;10.27;;
53145;SDS011;39042;53.150;5.898;2023-06-04T03:21:10;36.45;;;11.77;;
53145;SDS011;39042;53.150;5.898;2023-06-04T03:23:39;44.10;;;13.32;;
53145;SDS011;39042;53.150;5.898;2023-06-04T03:26:05;91.18;;;15.73;;
53145;SDS011;39042;53.150;5.898;2023-06-04T03:28:32;99.45;;;16.58;;
53145;SDS011;39042;53.150;5.898;2023-06-04T03:31:00;130.23;;;17.88;;
53145;SDS011;39042;53.150;5.898;2023-06-04T03:35:53;215.88;;;21.23;;
53145;SDS011;39042;53.150;5.898;2023-06-04T03:38:22;181.85;;;20.77;;
53145;SDS011;39042;53.150;5.898;2023-06-04T03:40:49;96.22;;;14.38;;
53145;SDS011;39042;53.150;5.898;2023-06-04T03:43:15;101.18;;;18.90;;
53145;SDS011;39042;53.150;5.898;2023-06-04T03:48:08;161.82;;;21.67;;
53145;SDS011;39042;53.150;5.898;2023-06-04T03:50:35;114.32;;;21.02;;
53145;SDS011;39042;53.150;5.898;2023-06-04T03:53:01;121.57;;;20.70;;
53145;SDS011;39042;53.150;5.898;2023-06-04T03:55:30;114.28;;;18.50;;
53145;SDS011;39042;53.150;5.898;2023-06-04T03:58:01;70.03;;;16.38;;
53145;SDS011;39042;53.150;5.898;2023-06-04T04:00:27;182.95;;;17.98;;
53145;SDS011;39042;53.150;5.898;2023-06-04T04:02:56;79.65;;;14.85;;
53145;SDS011;39042;53.150;5.898;2023-06-04T04:05:26;59.55;;;15.10;;
53145;SDS011;39042;53.150;5.898;2023-06-04T04:07:53;50.50;;;10.90;;
53145;SDS011;39042;53.150;5.898;2023-06-04T04:10:23;76.43;;;15.18;;
53145;SDS011;39042;53.150;5.898;2023-06-04T04:12:49;63.17;;;10.23;;
53145;SDS011;39042;53.150;5.898;2023-06-04T04:15:18;32.08;;;9.70;;
53145;SDS011;39042;53.150;5.898;2023-06-04T04:17:44;23.70;;;8.60;;
53145;SDS011;39042;53.150;5.898;2023-06-04T04:20:10;23.27;;;8.45;;
53145;SDS011;39042;53.150;5.898;2023-06-04T04:22:42;12.98;;;7.38;;
53145;SDS011;39042;53.150;5.898;2023-06-04T04:25:10;10.18;;;6.97;;
53145;SDS011;39042;53.150;5.898;2023-06-04T04:27:36;9.30;;;6.30;;
53145;SDS011;39042;53.150;5.898;2023-06-04T04:30:07;8.30;;;5.22;;
53145;SDS011;39042;53.150;5.898;2023-06-04T04:32:35;9.57;;;5.63;;
53145;SDS011;39042;53.150;5.898;2023-06-04T04:35:05;9.20;;;4.43;;
53145;SDS011;39042;53.150;5.898;2023-06-04T04:37:36;7.65;;;5.18;;
53145;SDS011;39042;53.150;5.898;2023-06-04T04:40:05;10.27;;;4.75;;
53145;SDS011;39042;53.150;5.898;2023-06-04T04:42:35;6.10;;;4.78;;
53145;SDS011;39042;53.150;5.898;2023-06-04T04:45:02;8.88;;;4.53;;
53145;SDS011;39042;53.150;5.898;2023-06-04T04:47:29;7.10;;;4.60;;
53145;SDS011;39042;53.150;5.898;2023-06-04T04:49:55;9.83;;;4.47;;
53145;SDS011;39042;53.150;5.898;2023-06-04T04:52:21;7.43;;;4.97;;
53145;SDS011;39042;53.150;5.898;2023-06-04T04:54:47;8.87;;;4.90;;
53145;SDS011;39042;53.150;5.898;2023-06-04T04:57:14;9.23;;;5.80;;
53145;SDS011;39042;53.150;5.898;2023-06-04T04:59:43;8.27;;;5.28;;
53145;SDS011;39042;53.150;5.898;2023-06-04T05:02:09;9.87;;;5.27;;
53145;SDS011;39042;53.150;5.898;2023-06-04T05:04:35;9.93;;;6.25;;
53145;SDS011;39042;53.150;5.898;2023-06-04T05:07:02;9.45;;;4.57;;
53145;SDS011;39042;53.150;5.898;2023-06-04T05:09:28;10.55;;;4.97;;
53145;SDS011;39042;53.150;5.898;2023-06-04T05:11:54;12.00;;;4.53;;
53145;SDS011;39042;53.150;5.898;2023-06-04T05:14:21;7.43;;;4.57;;
53145;SDS011;39042;53.150;5.898;2023-06-04T05:16:47;10.55;;;5.35;;
53145;SDS011;39042;53.150;5.898;2023-06-04T05:19:17;12.18;;;4.88;;
53145;SDS011;39042;53.150;5.898;2023-06-04T05:21:44;16.77;;;5.97;;
53145;SDS011;39042;53.150;5.898;2023-06-04T05:24:10;10.25;;;5.30;;
53145;SDS011;39042;53.150;5.898;2023-06-04T05:26:38;10.40;;;5.35;;
53145;SDS011;39042;53.150;5.898;2023-06-04T05:29:11;13.50;;;6.68;;
53145;SDS011;39042;53.150;5.898;2023-06-04T05:31:41;12.77;;;5.75;;
53145;SDS011;39042;53.150;5.898;2023-06-04T05:34:10;15.57;;;6.45;;
53145;SDS011;39042;53.150;5.898;2023-06-04T05:36:40;12.57;;;6.40;;
53145;SDS011;39042;53.150;5.898;2023-06-04T05:39:07;11.80;;;6.15;;
53145;SDS011;39042;53.150;5.898;2023-06-04T05:41:46;10.10;;;5.85;;
53145;SDS011;39042;53.150;5.898;2023-06-04T05:44:13;13.60;;;5.90;;
53145;SDS011;39042;53.150;5.898;2023-06-04T05:46:39;11.52;;;5.80;;
53145;SDS011;39042;53.150;5.898;2023-06-04T05:51:32;11.65;;;5.32;;
53145;SDS011;39042;53.150;5.898;2023-06-04T05:53:57;11.53;;;5.10;;
53145;SDS011;39042;53.150;5.898;2023-06-04T05:56:23;9.73;;;5.37;;
53145;SDS011;39042;53.150;5.898;2023-06-04T05:58:51;12.95;;;5.90;;
53145;SDS011;39042;53.150;5.898;2023-06-04T06:01:18;12.85;;;5.25;;
53145;SDS011;39042;53.150;5.898;2023-06-04T06:06:11;8.20;;;4.53;;
53145;SDS011;39042;53.150;5.898;2023-06-04T06:08:37;12.77;;;4.85;;
53145;SDS011;39042;53.150;5.898;2023-06-04T06:11:04;13.25;;;5.22;;
53145;SDS011;39042;53.150;5.898;2023-06-04T06:13:30;10.25;;;4.55;;
53145;SDS011;39042;53.150;5.898;2023-06-04T06:15:57;9.77;;;4.90;;
53145;SDS011;39042;53.150;5.898;2023-06-04T06:18:24;11.52;;;4.70;;
53145;SDS011;39042;53.150;5.898;2023-06-04T06:20:50;8.65;;;4.40;;
53145;SDS011;39042;53.150;5.898;2023-06-04T06:23:16;10.90;;;3.87;;
53145;SDS011;39042;53.150;5.898;2023-06-04T06:25:44;11.38;;;3.40;;
53145;SDS011;39042;53.150;5.898;2023-06-04T06:28:18;10.88;;;3.05;;
53145;SDS011;39042;53.150;5.898;2023-06-04T06:30:45;9.80;;;3.08;;
53145;SDS011;39042;53.150;5.898;2023-06-04T06:35:38;6.68;;;2.95;;
53145;SDS011;39042;53.150;5.898;2023-06-04T06:38:05;9.88;;;2.55;;
53145;SDS011;39042;53.150;5.898;2023-06-04T06:40:30;7.17;;;1.80;;
53145;SDS011;39042;53.150;5.898;2023-06-04T06:42:56;9.73;;;2.20;;
53145;SDS011;39042;53.150;5.898;2023-06-04T06:45:22;10.60;;;1.73;;
53145;SDS011;39042;53.150;5.898;2023-06-04T06:47:48;5.60;;;1.63;;
53145;SDS011;39042;53.150;5.898;2023-06-04T06:50:14;9.50;;;1.53;;
53145;SDS011;39042;53.150;5.898;2023-06-04T06:52:40;5.75;;;1.48;;
53145;SDS011;39042;53.150;5.898;2023-06-04T06:55:06;8.50;;;1.92;;
53145;SDS011;39042;53.150;5.898;2023-06-04T06:57:32;6.53;;;1.60;;
53145;SDS011;39042;53.150;5.898;2023-06-04T06:59:58;8.68;;;2.13;;
53145;SDS011;39042;53.150;5.898;2023-06-04T07:02:24;7.03;;;1.30;;
53145;SDS011;39042;53.150;5.898;2023-06-04T07:04:50;7.63;;;1.25;;
53145;SDS011;39042;53.150;5.898;2023-06-04T07:07:16;5.20;;;1.10;;
53145;SDS011;39042;53.150;5.898;2023-06-04T07:09:42;5.97;;;1.50;;
53145;SDS011;39042;53.150;5.898;2023-06-04T07:12:08;5.40;;;1.27;;
53145;SDS011;39042;53.150;5.898;2023-06-04T07:14:34;7.20;;;1.23;;
53145;SDS011;39042;53.150;5.898;2023-06-04T07:17:00;8.02;;;1.48;;
53145;SDS011;39042;53.150;5.898;2023-06-04T07:19:26;5.15;;;0.95;;
53145;SDS011;39042;53.150;5.898;2023-06-04T07:21:53;5.10;;;1.00;;
53145;SDS011;39042;53.150;5.898;2023-06-04T07:24:20;6.50;;;1.33;;
53145;SDS011;39042;53.150;5.898;2023-06-04T07:26:47;4.15;;;1.00;;
53145;SDS011;39042;53.150;5.898;2023-06-04T07:29:13;5.30;;;0.88;;
53145;SDS011;39042;53.150;5.898;2023-06-04T07:31:40;2.72;;;1.00;;
53145;SDS011;39042;53.150;5.898;2023-06-04T07:34:07;7.70;;;1.10;;
53145;SDS011;39042;53.150;5.898;2023-06-04T07:36:33;3.72;;;1.08;;
53145;SDS011;39042;53.150;5.898;2023-06-04T07:38:59;4.53;;;1.00;;
53145;SDS011;39042;53.150;5.898;2023-06-04T07:41:25;4.88;;;0.90;;
53145;SDS011;39042;53.150;5.898;2023-06-04T07:43:53;3.35;;;1.27;;
53145;SDS011;39042;53.150;5.898;2023-06-04T07:46:19;5.90;;;1.15;;
53145;SDS011;39042;53.150;5.898;2023-06-04T07:48:45;4.60;;;0.90;;
53145;SDS011;39042;53.150;5.898;2023-06-04T07:51:12;5.75;;;0.68;;
53145;SDS011;39042;53.150;5.898;2023-06-04T07:53:38;4.85;;;0.85;;
53145;SDS011;39042;53.150;5.898;2023-06-04T07:56:05;3.78;;;0.70;;
53145;SDS011;39042;53.150;5.898;2023-06-04T08:00:56;5.03;;;1.20;;
53145;SDS011;39042;53.150;5.898;2023-06-04T08:03:22;5.77;;;0.63;;
53145;SDS011;39042;53.150;5.898;2023-06-04T08:05:49;5.63;;;0.80;;
53145;SDS011;39042;53.150;5.898;2023-06-04T08:08:15;3.30;;;0.63;;
53145;SDS011;39042;53.150;5.898;2023-06-04T08:10:41;4.40;;;0.70;;
53145;SDS011;39042;53.150;5.898;2023-06-04T08:13:07;4.50;;;0.75;;
53145;SDS011;39042;53.150;5.898;2023-06-04T08:17:59;6.80;;;0.80;;
53145;SDS011;39042;53.150;5.898;2023-06-04T08:20:25;2.25;;;0.50;;
53145;SDS011;39042;53.150;5.898;2023-06-04T08:22:51;3.45;;;0.80;;
53145;SDS011;39042;53.150;5.898;2023-06-04T08:25:17;3.38;;;1.10;;
53145;SDS011;39042;53.150;5.898;2023-06-04T08:27:42;4.17;;;0.50;;
53145;SDS011;39042;53.150;5.898;2023-06-04T08:30:09;5.05;;;1.15;;
53145;SDS011;39042;53.150;5.898;2023-06-04T08:32:35;5.18;;;0.60;;
53145;SDS011;39042;53.150;5.898;2023-06-04T08:35:01;2.92;;;0.43;;
53145;SDS011;39042;53.150;5.898;2023-06-04T08:37:27;3.40;;;0.60;;
53145;SDS011;39042;53.150;5.898;2023-06-04T08:39:53;5.03;;;1.07;;
53145;SDS011;39042;53.150;5.898;2023-06-04T08:42:22;3.63;;;0.70;;
53145;SDS011;39042;53.150;5.898;2023-06-04T08:44:54;4.57;;;1.20;;
53145;SDS011;39042;53.150;5.898;2023-06-04T08:47:24;6.07;;;0.82;;
53145;SDS011;39042;53.150;5.898;2023-06-04T08:49:53;3.45;;;0.75;;
53145;SDS011;39042;53.150;5.898;2023-06-04T08:52:23;3.78;;;0.70;;
53145;SDS011;39042;53.150;5.898;2023-06-04T08:54:50;4.68;;;0.30;;
53145;SDS011;39042;53.150;5.898;2023-06-04T08:57:20;3.00;;;0.60;;
53145;SDS011;39042;53.150;5.898;2023-06-04T08:59:46;3.38;;;0.93;;
53145;SDS011;39042;53.150;5.898;2023-06-04T09:02:16;5.53;;;0.90;;
53145;SDS011;39042;53.150;5.898;2023-06-04T09:04:43;4.50;;;1.00;;
53145;SDS011;39042;53.150;5.898;2023-06-04T09:07:10;7.53;;;1.35;;
53145;SDS011;39042;53.150;5.898;2023-06-04T09:09:38;3.20;;;0.70;;
53145;SDS011;39042;53.150;5.898;2023-06-04T09:12:26;2.85;;;1.05;;
53145;SDS011;39042;53.150;5.898;2023-06-04T09:17:24;4.90;;;1.08;;
53145;SDS011;39042;53.150;5.898;2023-06-04T09:19:50;5.05;;;0.95;;
53145;SDS011;39042;53.150;5.898;2023-06-04T09:22:17;5.07;;;0.80;;
53145;SDS011;39042;53.150;5.898;2023-06-04T09:24:43;2.38;;;0.68;;
53145;SDS011;39042;53.150;5.898;2023-06-04T09:27:20;3.63;;;0.57;;
53145;SDS011;39042;53.150;5.898;2023-06-04T09:29:50;4.38;;;1.42;;
53145;SDS011;39042;53.150;5.898;2023-06-04T09:34:52;4.07;;;1.10;;
53145;SDS011;39042;53.150;5.898;2023-06-04T09:37:18;3.05;;;0.50;;
53145;SDS011;39042;53.150;5.898;2023-06-04T09:39:57;2.65;;;0.75;;
53145;SDS011;39042;53.150;5.898;2023-06-04T09:42:23;2.10;;;0.40;;
53145;SDS011;39042;53.150;5.898;2023-06-04T09:44:49;3.05;;;0.50;;
53145;SDS011;39042;53.150;5.898;2023-06-04T09:47:15;1.57;;;0.70;;
53145;SDS011;39042;53.150;5.898;2023-06-04T09:49:44;3.03;;;0.50;;
53145;SDS011;39042;53.150;5.898;2023-06-04T09:52:11;3.38;;;0.60;;
53145;SDS011;39042;53.150;5.898;2023-06-04T09:54:38;3.03;;;0.65;;
53145;SDS011;39042;53.150;5.898;2023-06-04T09:57:17;3.08;;;0.60;;
53145;SDS011;39042;53.150;5.898;2023-06-04T09:59:44;5.27;;;0.73;;
53145;SDS011;39042;53.150;5.898;2023-06-04T10:02:12;3.28;;;1.30;;
53145;SDS011;39042;53.150;5.898;2023-06-04T10:04:40;4.10;;;0.80;;
53145;SDS011;39042;53.150;5.898;2023-06-04T10:07:09;1.38;;;0.47;;
53145;SDS011;39042;53.150;5.898;2023-06-04T10:09:38;2.17;;;0.57;;
53145;SDS011;39042;53.150;5.898;2023-06-04T10:12:11;3.05;;;0.50;;
53145;SDS011;39042;53.150;5.898;2023-06-04T10:15:02;5.75;;;0.90;;
53145;SDS011;39042;53.150;5.898;2023-06-04T10:17:30;2.80;;;0.70;;
53145;SDS011;39042;53.150;5.898;2023-06-04T10:19:58;6.55;;;0.80;;
53145;SDS011;39042;53.150;5.898;2023-06-04T10:22:29;3.75;;;0.70;;
53145;SDS011;39042;53.150;5.898;2023-06-04T10:24:55;3.85;;;0.60;;
53145;SDS011;39042;53.150;5.898;2023-06-04T10:27:22;3.03;;;0.88;;
53145;SDS011;39042;53.150;5.898;2023-06-04T10:29:49;1.70;;;0.57;;
53145;SDS011;39042;53.150;5.898;2023-06-04T10:32:15;5.20;;;0.95;;
53145;SDS011;39042;53.150;5.898;2023-06-04T10:34:42;2.50;;;0.70;;
53145;SDS011;39042;53.150;5.898;2023-06-04T10:37:21;2.55;;;0.55;;
53145;SDS011;39042;53.150;5.898;2023-06-04T10:39:57;3.95;;;0.40;;
53145;SDS011;39042;53.150;5.898;2023-06-04T10:42:23;4.95;;;0.68;;
53145;SDS011;39042;53.150;5.898;2023-06-04T10:44:51;3.65;;;0.80;;
53145;SDS011;39042;53.150;5.898;2023-06-04T10:47:25;2.17;;;0.50;;
53145;SDS011;39042;53.150;5.898;2023-06-04T10:49:53;4.03;;;0.47;;
53145;SDS011;39042;53.150;5.898;2023-06-04T10:52:19;2.45;;;0.70;;
53145;SDS011;39042;53.150;5.898;2023-06-04T10:54:46;4.45;;;0.73;;
53145;SDS011;39042;53.150;5.898;2023-06-04T10:57:18;5.68;;;0.60;;
53145;SDS011;39042;53.150;5.898;2023-06-04T10:59:57;7.05;;;0.68;;
53145;SDS011;39042;53.150;5.898;2023-06-04T11:02:24;3.00;;;0.77;;
53145;SDS011;39042;53.150;5.898;2023-06-04T11:05:04;3.03;;;0.50;;
53145;SDS011;39042;53.150;5.898;2023-06-04T11:07:45;2.95;;;0.70;;
53145;SDS011;39042;53.150;5.898;2023-06-04T11:10:13;2.45;;;0.82;;
53145;SDS011;39042;53.150;5.898;2023-06-04T11:12:46;1.95;;;0.50;;
53145;SDS011;39042;53.150;5.898;2023-06-04T11:15:15;3.90;;;0.80;;
53145;SDS011;39042;53.150;5.898;2023-06-04T11:17:51;2.45;;;0.90;;
53145;SDS011;39042;53.150;5.898;2023-06-04T11:20:19;3.42;;;1.05;;
53145;SDS011;39042;53.150;5.898;2023-06-04T11:22:52;3.47;;;0.60;;
53145;SDS011;39042;53.150;5.898;2023-06-04T11:25:23;1.98;;;0.55;;
53145;SDS011;39042;53.150;5.898;2023-06-04T11:30:17;2.78;;;0.85;;
53145;SDS011;39042;53.150;5.898;2023-06-04T11:32:43;2.35;;;0.60;;
53145;SDS011;39042;53.150;5.898;2023-06-04T11:35:09;3.08;;;1.08;;
53145;SDS011;39042;53.150;5.898;2023-06-04T11:37:36;2.95;;;0.90;;
53145;SDS011;39042;53.150;5.898;2023-06-04T11:40:14;3.33;;;0.63;;
53145;SDS011;39042;53.150;5.898;2023-06-04T11:42:41;3.00;;;0.95;;
53145;SDS011;39042;53.150;5.898;2023-06-04T11:45:12;2.45;;;0.63;;
53145;SDS011;39042;53.150;5.898;2023-06-04T11:47:41;3.67;;;0.65;;
53145;SDS011;39042;53.150;5.898;2023-06-04T11:50:11;2.83;;;0.68;;
53145;SDS011;39042;53.150;5.898;2023-06-04T11:52:37;2.40;;;0.50;;
53145;SDS011;39042;53.150;5.898;2023-06-04T11:55:04;4.10;;;0.60;;
53145;SDS011;39042;53.150;5.898;2023-06-04T11:57:33;1.98;;;0.60;;
53145;SDS011;39042;53.150;5.898;2023-06-04T11:59:59;1.48;;;0.50;;
53145;SDS011;39042;53.150;5.898;2023-06-04T12:02:26;2.70;;;0.90;;
53145;SDS011;39042;53.150;5.898;2023-06-04T12:04:51;2.13;;;0.50;;
53145;SDS011;39042;53.150;5.898;2023-06-04T12:07:20;3.73;;;0.50;;
53145;SDS011;39042;53.150;5.898;2023-06-04T12:09:49;3.22;;;0.60;;
53145;SDS011;39042;53.150;5.898;2023-06-04T12:12:20;2.20;;;0.65;;
53145;SDS011;39042;53.150;5.898;2023-06-04T12:14:56;4.05;;;0.50;;
53145;SDS011;39042;53.150;5.898;2023-06-04T12:17:24;2.70;;;0.40;;
53145;SDS011;39042;53.150;5.898;2023-06-04T12:19:50;2.55;;;0.40;;
53145;SDS011;39042;53.150;5.898;2023-06-04T12:22:17;1.60;;;0.40;;
53145;SDS011;39042;53.150;5.898;2023-06-04T12:24:47;2.05;;;0.52;;
53145;SDS011;39042;53.150;5.898;2023-06-04T12:27:14;2.65;;;0.40;;
53145;SDS011;39042;53.150;5.898;2023-06-04T12:29:40;2.25;;;0.63;;
53145;SDS011;39042;53.150;5.898;2023-06-04T12:32:07;2.83;;;0.63;;
53145;SDS011;39042;53.150;5.898;2023-06-04T12:34:34;0.90;;;0.45;;
53145;SDS011;39042;53.150;5.898;2023-06-04T12:37:01;1.73;;;0.40;;
53145;SDS011;39042;53.150;5.898;2023-06-04T12:39:28;2.10;;;0.77;;
53145;SDS011;39042;53.150;5.898;2023-06-04T12:44:20;3.55;;;0.43;;
53145;SDS011;39042;53.150;5.898;2023-06-04T12:46:46;4.60;;;0.73;;
53145;SDS011;39042;53.150;5.898;2023-06-04T12:49:12;1.95;;;0.50;;
53145;SDS011;39042;53.150;5.898;2023-06-04T12:51:38;3.53;;;0.50;;
53145;SDS011;39042;53.150;5.898;2023-06-04T12:54:04;2.90;;;0.50;;
53145;SDS011;39042;53.150;5.898;2023-06-04T12:56:30;3.20;;;0.80;;
53145;SDS011;39042;53.150;5.898;2023-06-04T12:58:56;2.10;;;0.30;;
53145;SDS011;39042;53.150;5.898;2023-06-04T13:01:22;3.03;;;0.50;;
53145;SDS011;39042;53.150;5.898;2023-06-04T13:03:48;2.75;;;0.80;;
53145;SDS011;39042;53.150;5.898;2023-06-04T13:06:14;2.72;;;0.47;;
53145;SDS011;39042;53.150;5.898;2023-06-04T13:08:40;2.72;;;0.50;;
53145;SDS011;39042;53.150;5.898;2023-06-04T13:11:06;1.63;;;0.43;;
53145;SDS011;39042;53.150;5.898;2023-06-04T13:13:31;3.75;;;0.60;;
53145;SDS011;39042;53.150;5.898;2023-06-04T13:15:57;4.80;;;1.10;;
53145;SDS011;39042;53.150;5.898;2023-06-04T13:18:23;2.27;;;0.73;;
53145;SDS011;39042;53.150;5.898;2023-06-04T13:20:49;5.78;;;1.00;;
53145;SDS011;39042;53.150;5.898;2023-06-04T13:23:15;3.50;;;0.60;;
53145;SDS011;39042;53.150;5.898;2023-06-04T13:25:42;1.42;;;0.57;;
53145;SDS011;39042;53.150;5.898;2023-06-04T13:28:08;2.47;;;0.80;;
53145;SDS011;39042;53.150;5.898;2023-06-04T13:30:35;3.13;;;0.80;;
53145;SDS011;39042;53.150;5.898;2023-06-04T13:33:02;3.20;;;0.95;;
53145;SDS011;39042;53.150;5.898;2023-06-04T13:35:28;2.53;;;0.85;;
53145;SDS011;39042;53.150;5.898;2023-06-04T13:37:54;2.88;;;0.90;;
53145;SDS011;39042;53.150;5.898;2023-06-04T13:40:20;3.30;;;1.05;;
53145;SDS011;39042;53.150;5.898;2023-06-04T13:42:48;4.72;;;1.05;;
53145;SDS011;39042;53.150;5.898;2023-06-04T13:45:14;6.88;;;1.27;;
53145;SDS011;39042;53.150;5.898;2023-06-04T13:47:42;6.50;;;1.48;;
53145;SDS011;39042;53.150;5.898;2023-06-04T13:50:08;2.28;;;0.98;;
53145;SDS011;39042;53.150;5.898;2023-06-04T13:52:34;3.92;;;1.00;;
53145;SDS011;39042;53.150;5.898;2023-06-04T13:55:00;5.47;;;1.23;;
53145;SDS011;39042;53.150;5.898;2023-06-04T13:57:27;6.80;;;0.90;;
53145;SDS011;39042;53.150;5.898;2023-06-04T13:59:53;3.28;;;1.33;;
53145;SDS011;39042;53.150;5.898;2023-06-04T14:02:19;2.72;;;0.82;;
53145;SDS011;39042;53.150;5.898;2023-06-04T14:04:46;5.70;;;1.38;;
53145;SDS011;39042;53.150;5.898;2023-06-04T14:07:12;3.50;;;0.85;;
53145;SDS011;39042;53.150;5.898;2023-06-04T14:09:37;2.85;;;0.93;;
53145;SDS011;39042;53.150;5.898;2023-06-04T14:12:03;5.40;;;1.35;;
53145;SDS011;39042;53.150;5.898;2023-06-04T14:14:30;3.70;;;1.00;;
53145;SDS011;39042;53.150;5.898;2023-06-04T14:17:04;3.42;;;1.10;;
53145;SDS011;39042;53.150;5.898;2023-06-04T14:19:32;5.68;;;0.90;;
53145;SDS011;39042;53.150;5.898;2023-06-04T14:21:58;2.38;;;0.98;;
53145;SDS011;39042;53.150;5.898;2023-06-04T14:24:24;5.22;;;0.70;;
53145;SDS011;39042;53.150;5.898;2023-06-04T14:26:50;3.75;;;0.98;;
53145;SDS011;39042;53.150;5.898;2023-06-04T14:29:15;2.38;;;0.93;;
53145;SDS011;39042;53.150;5.898;2023-06-04T14:31:41;3.85;;;0.80;;
53145;SDS011;39042;53.150;5.898;2023-06-04T14:34:07;3.22;;;1.23;;
53145;SDS011;39042;53.150;5.898;2023-06-04T14:36:34;2.90;;;0.77;;
53145;SDS011;39042;53.150;5.898;2023-06-04T14:39:00;7.88;;;1.17;;
53145;SDS011;39042;53.150;5.898;2023-06-04T14:41:26;3.47;;;0.90;;
53145;SDS011;39042;53.150;5.898;2023-06-04T14:43:55;3.58;;;0.88;;
53145;SDS011;39042;53.150;5.898;2023-06-04T14:46:21;1.55;;;0.50;;
53145;SDS011;39042;53.150;5.898;2023-06-04T14:48:47;1.67;;;0.57;;
53145;SDS011;39042;53.150;5.898;2023-06-04T14:51:13;2.50;;;0.50;;
53145;SDS011;39042;53.150;5.898;2023-06-04T14:56:05;4.00;;;0.70;;
53145;SDS011;39042;53.150;5.898;2023-06-04T14:58:31;5.90;;;0.95;;
53145;SDS011;39042;53.150;5.898;2023-06-04T15:01:00;4.50;;;0.88;;
53145;SDS011;39042;53.150;5.898;2023-06-04T15:03:29;3.17;;;0.80;;
53145;SDS011;39042;53.150;5.898;2023-06-04T15:08:21;5.18;;;0.90;;
53145;SDS011;39042;53.150;5.898;2023-06-04T15:10:47;4.88;;;0.90;;
53145;SDS011;39042;53.150;5.898;2023-06-04T15:13:13;6.27;;;1.20;;
53145;SDS011;39042;53.150;5.898;2023-06-04T15:15:39;1.20;;;0.50;;
53145;SDS011;39042;53.150;5.898;2023-06-04T15:18:05;5.22;;;0.98;;
53145;SDS011;39042;53.150;5.898;2023-06-04T15:20:33;3.95;;;0.60;;
53145;SDS011;39042;53.150;5.898;2023-06-04T15:22:59;4.47;;;1.35;;
53145;SDS011;39042;53.150;5.898;2023-06-04T15:25:25;4.75;;;0.85;;
53145;SDS011;39042;53.150;5.898;2023-06-04T15:27:51;4.75;;;1.00;;
53145;SDS011;39042;53.150;5.898;2023-06-04T15:30:17;4.55;;;1.20;;
53145;SDS011;39042;53.150;5.898;2023-06-04T15:32:43;4.10;;;0.88;;